Time;durP1;ratioP1;P1;durP2;ratioP2;P2;SDS_P1;SDS_P2;PMS_P1;PMS_P2;Temp;Humidity;BMP_temperature;BMP_pressure;BME280_temperature;BME280_humidity;BME280_pressure;Samples;Min_cycle;Max_cycle;Signal;HPM_P1;HPM_P2
2023/10/30 00:00:22;;;;;;;1.98;1.60;;;5.20;99.90;;;;;;5057373;28;20048;-64
2023/10/30 00:02:49;;;;;;;2.03;1.80;;;5.20;99.90;;;;;;5053093;28;20124;-69
2023/10/30 00:05:16;;;;;;;1.27;1.17;;;5.30;99.90;;;;;;5059032;28;20450;-65
2023/10/30 00:07:43;;;;;;;2.60;1.67;;;5.30;99.90;;;;;;5058578;28;20036;-61
2023/10/30 00:10:10;;;;;;;2.00;1.80;;;5.30;99.90;;;;;;5055889;28;20044;-60
2023/10/30 00:12:38;;;;;;;2.08;1.40;;;5.30;99.90;;;;;;5056305;28;20568;-62
2023/10/30 00:15:05;;;;;;;2.40;1.70;;;5.30;99.90;;;;;;5052612;28;20043;-61
2023/10/30 00:17:33;;;;;;;2.08;1.38;;;5.30;99.90;;;;;;5051995;28;20047;-62
2023/10/30 00:20:00;;;;;;;2.80;1.27;;;5.30;99.90;;;;;;5058167;28;20071;-61
2023/10/30 00:22:27;;;;;;;2.42;1.83;;;5.30;99.90;;;;;;5052746;28;20052;-62
2023/10/30 00:24:54;;;;;;;2.60;1.55;;;5.40;99.90;;;;;;5056285;28;20071;-61
2023/10/30 00:27:21;;;;;;;1.92;1.70;;;5.40;99.90;;;;;;5053046;28;20560;-61
2023/10/30 00:29:48;;;;;;;2.47;2.05;;;5.40;99.90;;;;;;5055267;28;20099;-64
2023/10/30 00:32:15;;;;;;;2.00;1.80;;;5.40;99.90;;;;;;5036943;28;20450;-64
2023/10/30 00:34:42;;;;;;;2.70;1.90;;;5.40;99.90;;;;;;5035862;28;20364;-61
2023/10/30 00:37:10;;;;;;;2.42;1.80;;;5.40;99.90;;;;;;5041434;28;20414;-65
2023/10/30 00:39:37;;;;;;;2.20;1.60;;;5.40;99.90;;;;;;5055075;28;20044;-61
2023/10/30 00:42:04;;;;;;;2.33;1.80;;;5.50;99.90;;;;;;5037648;28;20048;-63
2023/10/30 00:44:31;;;;;;;2.22;2.03;;;5.40;99.90;;;;;;5059133;28;20049;-62
2023/10/30 00:46:58;;;;;;;1.95;1.80;;;5.50;99.90;;;;;;5052128;28;20562;-66
2023/10/30 00:49:26;;;;;;;4.07;2.15;;;5.50;99.90;;;;;;5051385;28;20053;-63
2023/10/30 00:51:53;;;;;;;3.60;2.20;;;5.50;99.90;;;;;;5053819;28;20124;-64
2023/10/30 00:54:20;;;;;;;2.50;2.30;;;5.50;99.90;;;;;;5050645;28;20071;-61
2023/10/30 00:56:47;;;;;;;2.72;1.73;;;5.50;99.90;;;;;;5039591;28;20053;-61
2023/10/30 00:59:14;;;;;;;3.72;2.15;;;5.50;99.90;;;;;;5037203;28;20588;-61
2023/10/30 01:01:41;;;;;;;2.55;2.22;;;5.50;99.90;;;;;;5035876;28;20103;-63
2023/10/30 01:04:08;;;;;;;2.72;2.40;;;5.50;99.90;;;;;;5038642;28;20132;-62
2023/10/30 01:06:35;;;;;;;4.65;3.05;;;5.50;99.90;;;;;;5034860;28;20049;-61
2023/10/30 01:09:02;;;;;;;2.25;1.90;;;5.60;99.90;;;;;;5056958;28;20154;-62
2023/10/30 01:11:29;;;;;;;5.22;2.28;;;5.60;99.90;;;;;;5037653;28;20467;-63
2023/10/30 01:13:56;;;;;;;3.13;2.25;;;5.60;99.90;;;;;;5052444;28;20131;-61
2023/10/30 01:16:23;;;;;;;3.33;1.65;;;5.60;99.90;;;;;;5058538;28;20051;-61
2023/10/30 01:18:50;;;;;;;3.92;2.08;;;5.60;99.90;;;;;;5055621;28;20487;-61
2023/10/30 01:21:17;;;;;;;3.17;1.70;;;5.60;99.90;;;;;;5051297;28;20052;-61
2023/10/30 01:23:44;;;;;;;2.40;2.17;;;5.60;99.90;;;;;;5036471;28;20460;-61
2023/10/30 01:26:11;;;;;;;2.75;2.22;;;5.60;99.90;;;;;;5051660;28;20223;-66
2023/10/30 01:28:38;;;;;;;2.80;2.00;;;5.60;99.90;;;;;;5053630;28;20041;-61
2023/10/30 01:31:05;;;;;;;2.75;1.67;;;5.60;99.90;;;;;;5051570;28;20041;-61
2023/10/30 01:33:32;;;;;;;2.67;2.47;;;5.60;99.90;;;;;;5035363;28;20060;-60
2023/10/30 01:35:59;;;;;;;3.40;2.47;;;5.60;99.90;;;;;;5052689;28;20490;-62
2023/10/30 01:38:26;;;;;;;2.25;2.05;;;5.70;99.90;;;;;;5054568;28;20890;-62
2023/10/30 01:40:53;;;;;;;2.47;2.22;;;5.70;99.90;;;;;;5052935;28;20543;-62
2023/10/30 01:43:33;;;;;;;2.60;2.40;;;5.60;99.90;;;;;;5057551;28;20091;-61
2023/10/30 01:46:00;;;;;;;3.97;2.10;;;5.70;99.90;;;;;;5046687;28;20041;-64
2023/10/30 01:48:33;;;;;;;3.40;2.88;;;5.70;99.90;;;;;;5057416;28;20040;-64
2023/10/30 01:51:01;;;;;;;3.42;2.22;;;5.70;99.90;;;;;;5052121;28;20049;-61
2023/10/30 01:53:29;;;;;;;3.28;2.80;;;5.70;99.90;;;;;;5049738;28;20422;-65
2023/10/30 01:55:58;;;;;;;2.30;2.10;;;5.70;99.90;;;;;;5031030;28;20051;-65
2023/10/30 01:58:25;;;;;;;2.67;2.42;;;5.70;99.90;;;;;;5047252;28;20215;-60
2023/10/30 02:00:53;;;;;;;3.13;2.20;;;5.70;99.90;;;;;;5032822;28;20106;-60
2023/10/30 02:03:20;;;;;;;3.15;2.25;;;5.70;99.90;;;;;;5052661;28;20130;-61
2023/10/30 02:05:47;;;;;;;2.17;1.98;;;5.80;99.90;;;;;;5031241;28;20056;-63
2023/10/30 02:08:16;;;;;;;3.60;2.15;;;5.70;99.90;;;;;;5051680;28;20103;-68
2023/10/30 02:10:43;;;;;;;3.70;2.80;;;5.80;99.90;;;;;;5056676;28;20045;-60
2023/10/30 02:13:11;;;;;;;2.65;2.45;;;5.80;99.90;;;;;;5051785;28;20055;-61
2023/10/30 02:15:38;;;;;;;5.20;4.60;;;5.80;99.90;;;;;;5052390;28;20726;-62
2023/10/30 02:18:05;;;;;;;4.25;3.63;;;5.80;99.90;;;;;;5048357;28;20051;-61
2023/10/30 02:20:33;;;;;;;4.13;3.60;;;5.80;99.90;;;;;;5050840;28;20068;-61
2023/10/30 02:23:00;;;;;;;5.68;3.22;;;5.80;99.90;;;;;;5052689;28;20515;-63
2023/10/30 02:25:27;;;;;;;4.07;2.92;;;5.80;99.90;;;;;;5030958;28;20099;-60
2023/10/30 02:27:54;;;;;;;4.70;2.80;;;5.80;99.90;;;;;;5050845;28;20046;-65
2023/10/30 02:30:21;;;;;;;6.88;3.53;;;5.90;99.90;;;;;;5031723;28;20114;-62
2023/10/30 02:32:50;;;;;;;2.95;2.58;;;5.90;99.90;;;;;;5050586;28;20446;-62
2023/10/30 02:35:18;;;;;;;;;;;5.90;99.90;;;;;;5057066;28;20136;-62
2023/10/30 02:37:47;;;;;;;3.15;2.40;;;5.80;99.90;;;;;;5034097;28;19931;-61
2023/10/30 02:40:14;;;;;;;3.65;3.13;;;5.90;99.90;;;;;;5052309;28;20491;-64
2023/10/30 02:42:41;;;;;;;3.40;3.10;;;5.90;99.90;;;;;;5033482;28;20053;-62
2023/10/30 02:45:09;;;;;;;5.07;3.83;;;5.90;99.90;;;;;;5051324;28;20127;-63
2023/10/30 02:47:37;;;;;;;3.20;2.75;;;5.90;99.90;;;;;;5035081;28;20068;-63
2023/10/30 02:50:04;;;;;;;4.05;3.17;;;5.90;99.90;;;;;;5055058;28;20048;-64
2023/10/30 02:52:32;;;;;;;6.50;3.53;;;5.90;99.90;;;;;;5047587;28;20141;-68
2023/10/30 02:54:59;;;;;;;5.63;3.17;;;5.90;99.90;;;;;;5034423;28;20053;-61
2023/10/30 02:57:26;;;;;;;4.40;3.20;;;5.90;99.90;;;;;;5046473;28;20080;-62
2023/10/30 02:59:53;;;;;;;3.70;3.45;;;5.90;99.90;;;;;;5042727;28;20045;-64
2023/10/30 03:02:20;;;;;;;3.67;2.97;;;5.90;99.90;;;;;;5053543;28;20048;-65
2023/10/30 03:04:47;;;;;;;3.85;3.13;;;5.90;99.90;;;;;;5048244;28;20036;-61
2023/10/30 03:07:15;;;;;;;4.95;3.92;;;5.90;99.90;;;;;;5046323;28;20077;-67
2023/10/30 03:09:42;;;;;;;4.05;3.53;;;5.90;99.90;;;;;;5051202;28;20044;-65
2023/10/30 03:12:09;;;;;;;4.43;3.28;;;5.90;99.90;;;;;;5043482;28;20037;-63
2023/10/30 03:14:37;;;;;;;6.88;4.22;;;5.90;99.90;;;;;;5045862;28;20111;-67
2023/10/30 03:17:04;;;;;;;5.78;3.75;;;5.90;99.90;;;;;;5049419;28;20049;-61
2023/10/30 03:19:31;;;;;;;5.82;3.63;;;5.90;99.90;;;;;;5046765;28;20136;-62
2023/10/30 03:21:58;;;;;;;3.53;3.05;;;5.90;99.90;;;;;;5036306;28;20140;-65
2023/10/30 03:24:25;;;;;;;3.95;2.85;;;5.90;99.90;;;;;;5035137;28;20467;-62
2023/10/30 03:26:52;;;;;;;5.07;3.78;;;5.90;99.90;;;;;;5049363;28;20029;-61
2023/10/30 03:29:19;;;;;;;6.90;4.40;;;5.90;99.90;;;;;;5051210;28;20048;-61
2023/10/30 03:31:45;;;;;;;4.07;3.42;;;5.90;99.90;;;;;;5056644;28;20335;-63
2023/10/30 03:34:15;;;;;;;5.30;3.67;;;5.90;99.90;;;;;;5051158;28;20060;-63
2023/10/30 03:36:42;;;;;;;4.60;3.05;;;5.90;99.90;;;;;;5036426;28;20104;-63
2023/10/30 03:39:09;;;;;;;4.57;3.35;;;5.90;99.90;;;;;;5053702;28;20071;-65
2023/10/30 03:41:37;;;;;;;3.40;2.60;;;5.90;99.90;;;;;;5053916;28;20040;-60
2023/10/30 03:44:04;;;;;;;6.63;3.83;;;5.90;99.90;;;;;;5052071;28;20067;-64
2023/10/30 03:46:33;;;;;;;4.32;3.08;;;5.90;99.90;;;;;;5055397;28;20048;-60
2023/10/30 03:49:00;;;;;;;5.50;3.97;;;5.90;99.90;;;;;;5046456;28;20395;-63
2023/10/30 03:51:27;;;;;;;3.45;2.80;;;5.90;99.90;;;;;;5054953;28;20111;-61
2023/10/30 03:53:54;;;;;;;4.22;3.03;;;5.90;99.90;;;;;;5051827;28;20041;-61
2023/10/30 03:56:21;;;;;;;7.13;2.92;;;6.00;99.90;;;;;;5047027;28;20079;-63
2023/10/30 03:58:48;;;;;;;4.75;3.92;;;5.90;99.90;;;;;;5047049;28;20048;-61
2023/10/30 04:01:15;;;;;;;4.07;3.00;;;6.00;99.90;;;;;;5047904;28;20530;-67
2023/10/30 04:03:41;;;;;;;4.25;3.20;;;6.00;99.90;;;;;;5053652;28;20060;-61
2023/10/30 04:06:08;;;;;;;5.15;4.03;;;6.00;99.90;;;;;;5054399;28;20077;-63
2023/10/30 04:08:35;;;;;;;4.07;3.67;;;6.00;99.90;;;;;;5047873;28;20376;-62
2023/10/30 04:11:09;;;;;;;5.65;3.97;;;6.00;99.90;;;;;;5044426;28;20091;-63
2023/10/30 04:13:36;;;;;;;5.20;4.15;;;6.00;99.90;;;;;;5053386;28;20051;-62
2023/10/30 04:16:03;;;;;;;8.80;4.70;;;6.00;99.90;;;;;;5046175;28;20488;-64
2023/10/30 04:18:31;;;;;;;8.00;5.93;;;6.00;99.90;;;;;;5054447;28;20072;-60
2023/10/30 04:20:58;;;;;;;4.32;3.47;;;6.10;99.90;;;;;;5049082;28;20065;-60
2023/10/30 04:23:25;;;;;;;5.55;4.07;;;6.10;99.90;;;;;;5051291;28;20045;-61
2023/10/30 04:25:52;;;;;;;4.57;3.65;;;6.00;99.90;;;;;;5052648;28;20033;-61
2023/10/30 04:28:19;;;;;;;4.95;3.60;;;6.00;99.90;;;;;;5049941;28;20120;-61
2023/10/30 04:30:46;;;;;;;5.65;4.07;;;6.00;99.90;;;;;;5056455;28;20044;-61
2023/10/30 04:33:13;;;;;;;6.70;5.07;;;6.00;99.90;;;;;;5048444;28;20475;-62
2023/10/30 04:35:40;;;;;;;4.28;3.88;;;6.10;99.90;;;;;;5048511;28;20043;-62
2023/10/30 04:38:07;;;;;;;7.00;4.07;;;6.10;99.90;;;;;;5044772;28;20467;-61
2023/10/30 04:40:34;;;;;;;4.97;4.05;;;6.10;99.90;;;;;;5050066;28;20044;-62
2023/10/30 04:43:01;;;;;;;7.75;4.93;;;6.10;99.90;;;;;;5050760;28;20069;-61
2023/10/30 04:45:28;;;;;;;7.18;4.85;;;6.10;99.90;;;;;;5050114;28;20060;-63
2023/10/30 04:47:55;;;;;;;8.23;4.10;;;6.10;99.90;;;;;;5053611;28;20092;-64
2023/10/30 04:50:22;;;;;;;6.43;4.78;;;6.10;99.90;;;;;;5049877;28;20045;-61
2023/10/30 04:52:49;;;;;;;7.68;4.53;;;6.10;99.90;;;;;;5052722;28;20175;-63
2023/10/30 04:55:16;;;;;;;5.60;4.32;;;6.10;99.90;;;;;;5052672;28;20098;-62
2023/10/30 04:57:43;;;;;;;5.05;3.50;;;6.10;99.90;;;;;;5050968;28;20056;-62
2023/10/30 05:00:12;;;;;;;4.57;3.90;;;6.10;99.90;;;;;;5049584;28;20115;-64
2023/10/30 05:02:39;;;;;;;6.55;4.22;;;6.10;99.90;;;;;;5044629;28;20052;-62
2023/10/30 05:05:06;;;;;;;4.85;3.58;;;6.10;99.90;;;;;;5056252;28;20029;-62
2023/10/30 05:07:33;;;;;;;4.65;3.63;;;6.10;99.90;;;;;;5051356;28;20084;-61
2023/10/30 05:10:00;;;;;;;7.00;3.95;;;6.10;99.90;;;;;;5055528;28;20037;-65
2023/10/30 05:12:27;;;;;;;4.63;4.22;;;6.10;99.90;;;;;;5054009;28;20045;-65
2023/10/30 05:14:54;;;;;;;7.75;4.40;;;6.10;99.90;;;;;;5050425;28;20040;-62
2023/10/30 05:17:20;;;;;;;6.50;3.95;;;6.10;99.90;;;;;;5049572;28;20044;-62
2023/10/30 05:19:47;;;;;;;7.65;4.97;;;6.10;99.90;;;;;;5052345;28;20048;-61
2023/10/30 05:22:14;;;;;;;6.63;4.15;;;6.20;99.90;;;;;;5048326;28;20045;-64
2023/10/30 05:24:41;;;;;;;5.18;3.75;;;6.20;99.90;;;;;;5053626;28;20120;-65
2023/10/30 05:27:08;;;;;;;6.63;4.38;;;6.20;99.90;;;;;;5055182;28;20037;-65
2023/10/30 05:29:35;;;;;;;5.85;4.57;;;6.20;99.90;;;;;;5052000;28;20053;-62
2023/10/30 05:32:06;;;;;;;6.65;4.20;;;6.20;99.90;;;;;;5051045;28;20511;-64
2023/10/30 05:34:34;;;;;;;11.23;5.63;;;6.10;99.90;;;;;;5050474;28;20419;-62
2023/10/30 05:37:01;;;;;;;5.95;4.80;;;6.20;99.90;;;;;;5056892;28;20079;-63
2023/10/30 05:39:28;;;;;;;6.10;3.83;;;6.20;99.90;;;;;;5052471;28;20818;-61
2023/10/30 05:41:55;;;;;;;6.00;4.03;;;6.20;99.90;;;;;;5052312;28;20049;-61
2023/10/30 05:44:22;;;;;;;5.03;4.53;;;6.20;99.90;;;;;;5052201;28;20041;-63
2023/10/30 05:46:49;;;;;;;7.72;5.07;;;6.20;99.90;;;;;;5050278;28;20119;-62
2023/10/30 05:49:16;;;;;;;7.63;4.90;;;6.20;99.90;;;;;;5049498;28;20055;-64
2023/10/30 05:51:43;;;;;;;6.57;4.85;;;6.20;99.90;;;;;;5055533;28;20123;-63
2023/10/30 05:54:10;;;;;;;8.23;6.00;;;6.20;99.90;;;;;;5049495;28;20048;-61
2023/10/30 05:56:37;;;;;;;11.18;5.47;;;6.20;99.90;;;;;;5052166;28;20531;-61
2023/10/30 05:59:04;;;;;;;8.25;7.05;;;6.20;99.90;;;;;;5050379;28;20045;-62
2023/10/30 06:01:31;;;;;;;8.23;4.60;;;6.20;99.90;;;;;;5052047;28;20045;-62
2023/10/30 06:03:58;;;;;;;7.10;4.57;;;6.20;99.90;;;;;;5049081;28;20033;-61
2023/10/30 06:06:25;;;;;;;8.10;4.93;;;6.20;99.90;;;;;;5054788;28;20065;-61
2023/10/30 06:08:52;;;;;;;5.57;4.75;;;6.20;99.90;;;;;;5053663;28;20095;-62
2023/10/30 06:11:19;;;;;;;7.80;5.78;;;6.20;99.90;;;;;;5034247;28;20095;-61
2023/10/30 06:13:46;;;;;;;5.63;5.07;;;6.30;99.90;;;;;;5052561;28;20094;-61
2023/10/30 06:16:14;;;;;;;6.70;4.65;;;6.20;99.90;;;;;;5047833;28;20037;-63
2023/10/30 06:18:41;;;;;;;6.43;5.00;;;6.30;99.90;;;;;;5051315;28;20391;-64
2023/10/30 06:21:08;;;;;;;7.80;5.30;;;6.30;99.90;;;;;;5053836;28;20057;-64
2023/10/30 06:23:35;;;;;;;10.00;6.82;;;6.30;99.90;;;;;;5048688;28;20067;-61
2023/10/30 06:26:13;;;;;;;9.75;6.30;;;6.30;99.90;;;;;;5048169;28;20069;-71
2023/10/30 06:28:41;;;;;;;8.50;4.70;;;6.30;99.90;;;;;;5047639;28;20037;-61
2023/10/30 06:31:15;;;;;;;10.05;6.97;;;6.30;99.90;;;;;;5051270;28;20091;-61
2023/10/30 06:33:43;;;;;;;15.00;6.75;;;6.30;99.90;;;;;;5057402;28;20105;-61
2023/10/30 06:36:10;;;;;;;6.22;5.63;;;6.30;99.90;;;;;;5055961;28;20418;-62
2023/10/30 06:38:37;;;;;;;11.40;5.88;;;6.30;99.90;;;;;;5049026;28;20045;-62
2023/10/30 06:41:05;;;;;;;8.18;5.28;;;6.30;99.90;;;;;;5050981;28;20068;-62
2023/10/30 06:43:32;;;;;;;6.15;4.90;;;6.30;99.90;;;;;;5050647;28;20072;-63
2023/10/30 06:46:00;;;;;;;7.60;6.07;;;6.30;99.90;;;;;;5054035;28;20064;-61
2023/10/30 06:48:27;;;;;;;6.85;4.82;;;6.30;99.90;;;;;;5046868;28;20045;-68
2023/10/30 06:50:55;;;;;;;5.95;4.20;;;6.30;99.90;;;;;;5050012;28;20048;-61
2023/10/30 06:53:23;;;;;;;6.55;4.80;;;6.40;99.90;;;;;;5046099;28;20048;-61
2023/10/30 06:55:51;;;;;;;7.03;4.68;;;6.40;99.90;;;;;;5050679;28;20109;-61
2023/10/30 06:58:18;;;;;;;7.35;5.22;;;6.40;99.90;;;;;;5052118;28;20052;-64
2023/10/30 07:00:45;;;;;;;5.93;4.68;;;6.40;99.90;;;;;;5049022;28;20088;-61
2023/10/30 07:03:12;;;;;;;8.73;6.10;;;6.40;99.90;;;;;;5051473;28;20053;-67
2023/10/30 07:05:39;;;;;;;10.27;6.57;;;6.40;99.90;;;;;;5053093;28;20045;-62
2023/10/30 07:08:06;;;;;;;7.10;5.85;;;6.50;99.90;;;;;;5048749;28;20041;-64
2023/10/30 07:10:33;;;;;;;6.40;4.97;;;6.40;99.90;;;;;;5049269;28;20132;-62
2023/10/30 07:13:00;;;;;;;7.70;4.95;;;6.40;99.90;;;;;;5056286;28;20045;-61
2023/10/30 07:15:27;;;;;;;9.88;6.07;;;6.40;99.90;;;;;;5053063;28;20080;-61
2023/10/30 07:17:56;;;;;;;8.50;6.07;;;6.50;99.90;;;;;;5049806;28;20044;-63
2023/10/30 07:20:23;;;;;;;10.80;5.93;;;6.40;99.90;;;;;;5053216;28;20120;-63
2023/10/30 07:22:50;;;;;;;10.13;6.72;;;6.40;99.90;;;;;;5049732;28;20052;-62
2023/10/30 07:25:17;;;;;;;9.00;6.93;;;6.50;99.90;;;;;;5049417;28;20861;-61
2023/10/30 07:27:44;;;;;;;6.90;5.78;;;6.50;99.90;;;;;;5052826;28;20456;-63
2023/10/30 07:30:11;;;;;;;7.95;5.70;;;6.50;99.90;;;;;;5052908;28;20055;-65
2023/10/30 07:32:38;;;;;;;9.00;6.10;;;6.50;99.90;;;;;;5049930;28;20041;-62
2023/10/30 07:35:06;;;;;;;10.40;6.63;;;6.50;99.90;;;;;;5051475;28;20514;-61
2023/10/30 07:37:36;;;;;;;6.63;5.50;;;6.50;99.90;;;;;;5051246;28;20111;-62
2023/10/30 07:40:03;;;;;;;7.45;6.05;;;6.50;99.90;;;;;;5053266;28;20602;-65
2023/10/30 07:42:30;;;;;;;13.60;6.18;;;6.60;99.90;;;;;;5048727;28;20047;-67
2023/10/30 07:44:57;;;;;;;8.40;5.55;;;6.60;99.90;;;;;;5053232;28;20044;-62
2023/10/30 07:47:25;;;;;;;11.52;7.28;;;6.60;99.90;;;;;;5047987;28;20061;-61
2023/10/30 07:50:09;;;;;;;11.93;6.18;;;6.60;99.90;;;;;;5046543;28;20041;-62
2023/10/30 07:52:35;;;;;;;9.25;6.43;;;6.70;99.90;;;;;;5053012;28;20092;-63
2023/10/30 07:55:06;;;;;;;11.43;6.47;;;6.70;99.90;;;;;;5045881;28;20093;-66
2023/10/30 07:57:34;;;;;;;9.57;7.20;;;6.70;99.90;;;;;;5047405;28;20045;-67
2023/10/30 08:00:01;;;;;;;7.05;5.57;;;6.80;99.90;;;;;;5047103;28;20422;-61
2023/10/30 08:02:30;;;;;;;17.00;7.00;;;6.80;99.90;;;;;;5049047;28;20601;-61
2023/10/30 08:04:59;;;;;;;8.90;6.32;;;6.90;99.90;;;;;;5048816;28;20123;-61
2023/10/30 08:07:26;;;;;;;10.90;6.57;;;7.00;99.90;;;;;;5052763;28;20045;-62
2023/10/30 08:09:54;;;;;;;12.05;6.20;;;7.10;99.90;;;;;;5045959;28;20053;-65
2023/10/30 08:12:23;;;;;;;12.52;6.10;;;7.20;99.90;;;;;;5047863;28;20045;-66
2023/10/30 08:14:52;;;;;;;11.35;5.78;;;7.20;99.90;;;;;;5031959;28;20095;-62
2023/10/30 08:17:19;;;;;;;12.18;6.20;;;7.20;99.90;;;;;;5055215;28;20063;-64
2023/10/30 08:19:47;;;;;;;9.68;5.75;;;7.20;99.90;;;;;;5053720;28;20048;-65
2023/10/30 08:22:14;;;;;;;8.10;5.57;;;7.20;99.90;;;;;;5052251;28;20517;-64
2023/10/30 08:24:41;;;;;;;7.50;5.03;;;7.20;99.90;;;;;;5053560;28;20075;-65
2023/10/30 08:27:09;;;;;;;9.07;6.55;;;7.20;99.90;;;;;;5053316;28;20475;-61
2023/10/30 08:29:36;;;;;;;9.45;5.93;;;7.20;99.90;;;;;;5048489;28;20072;-64
2023/10/30 08:32:03;;;;;;;6.78;4.13;;;7.20;99.90;;;;;;5051337;28;20071;-65
2023/10/30 08:34:30;;;;;;;6.95;5.28;;;7.20;99.90;;;;;;5049395;28;20127;-61
2023/10/30 08:36:57;;;;;;;8.48;5.72;;;7.20;99.90;;;;;;5051258;28;20448;-62
2023/10/30 08:39:24;;;;;;;8.18;5.47;;;7.30;99.90;;;;;;5049547;28;20033;-67
2023/10/30 08:41:51;;;;;;;10.38;5.63;;;7.30;99.90;;;;;;5052135;28;20063;-72
2023/10/30 08:44:18;;;;;;;8.75;6.32;;;7.40;99.90;;;;;;5050145;28;20542;-62
2023/10/30 08:46:45;;;;;;;8.77;6.50;;;7.40;99.90;;;;;;5051047;28;20041;-63
2023/10/30 08:49:12;;;;;;;5.80;4.53;;;7.40;99.90;;;;;;5053060;28;20040;-61
2023/10/30 08:51:41;;;;;;;8.02;5.40;;;7.40;99.90;;;;;;5052494;28;20057;-63
2023/10/30 08:54:26;;;;;;;5.30;4.43;;;7.40;99.90;;;;;;5048965;28;20051;-62
2023/10/30 08:56:54;;;;;;;7.22;5.32;;;7.40;99.90;;;;;;5044971;28;20117;-61
2023/10/30 08:59:38;;;;;;;5.85;4.72;;;7.40;99.90;;;;;;5052630;28;20041;-61
2023/10/30 09:02:08;;;;;;;6.72;4.47;;;7.40;99.90;;;;;;5058214;28;20033;-65
2023/10/30 09:04:36;;;;;;;4.97;4.53;;;7.40;99.90;;;;;;5054899;28;20495;-61
2023/10/30 09:07:03;;;;;;;6.15;4.32;;;7.50;99.90;;;;;;5052152;28;20123;-64
2023/10/30 09:09:30;;;;;;;9.10;4.43;;;7.50;99.90;;;;;;5048724;28;20045;-65
2023/10/30 09:11:57;;;;;;;6.78;5.05;;;7.50;99.90;;;;;;5054799;28;20055;-64
2023/10/30 09:14:24;;;;;;;4.68;3.78;;;7.50;99.90;;;;;;5048735;28;20412;-62
2023/10/30 09:16:52;;;;;;;6.05;4.53;;;7.50;99.90;;;;;;5054344;28;20048;-64
2023/10/30 09:19:20;;;;;;;9.00;5.20;;;7.60;99.90;;;;;;5050945;28;20131;-62
2023/10/30 09:21:47;;;;;;;5.78;3.47;;;7.60;99.90;;;;;;5051716;28;20037;-64
2023/10/30 09:24:14;;;;;;;5.18;3.50;;;7.70;99.90;;;;;;5050144;28;20382;-66
2023/10/30 09:26:41;;;;;;;4.57;2.85;;;7.60;99.90;;;;;;5052955;28;20052;-63
2023/10/30 09:29:08;;;;;;;7.70;3.65;;;7.70;99.90;;;;;;5056311;28;20499;-64
2023/10/30 09:31:35;;;;;;;9.38;4.20;;;7.60;99.90;;;;;;5056717;28;20048;-61
2023/10/30 09:34:03;;;;;;;5.55;3.97;;;7.70;99.90;;;;;;5049512;28;20056;-68
2023/10/30 09:36:30;;;;;;;8.85;3.10;;;7.70;99.90;;;;;;5051345;28;20045;-63
2023/10/30 09:38:57;;;;;;;4.85;3.13;;;7.60;99.90;;;;;;5047200;28;20041;-61
2023/10/30 09:41:28;;;;;;;5.20;3.20;;;7.70;99.90;;;;;;5055135;28;20174;-62
2023/10/30 09:43:58;;;;;;;4.63;3.33;;;7.70;99.90;;;;;;5049123;28;20064;-62
2023/10/30 09:46:28;;;;;;;8.60;3.45;;;7.70;99.90;;;;;;5049356;28;20451;-64
2023/10/30 09:48:56;;;;;;;;;;;7.80;99.90;;;;;;5031462;28;20076;-62
2023/10/30 09:51:24;;;;;;;5.30;3.45;;;7.70;99.90;;;;;;5054373;28;20271;-61
2023/10/30 09:53:53;;;;;;;8.73;3.15;;;7.70;99.90;;;;;;5052822;28;20045;-61
2023/10/30 09:56:22;;;;;;;6.27;3.90;;;7.80;99.90;;;;;;5052404;28;20120;-62
2023/10/30 09:58:50;;;;;;;4.15;3.20;;;7.80;99.90;;;;;;5049510;28;20478;-62
2023/10/30 10:01:19;;;;;;;4.53;3.17;;;7.90;99.90;;;;;;5019959;28;20076;-71
2023/10/30 10:03:46;;;;;;;5.60;3.50;;;7.80;99.90;;;;;;5047135;28;20041;-62
2023/10/30 10:06:14;;;;;;;4.28;3.05;;;7.80;99.90;;;;;;5048256;28;20391;-67
2023/10/30 10:08:42;;;;;;;8.02;3.50;;;7.80;99.90;;;;;;5054947;28;20048;-61
2023/10/30 10:11:09;;;;;;;3.38;2.63;;;7.80;99.90;;;;;;5049996;28;20068;-62
2023/10/30 10:13:37;;;;;;;5.25;3.67;;;7.80;99.90;;;;;;5051772;28;20399;-62
2023/10/30 10:16:31;;;;;;;3.22;2.92;;;7.80;99.90;;;;;;5050647;28;20041;-61
2023/10/30 10:18:58;;;;;;;5.03;2.75;;;7.80;99.90;;;;;;5046247;28;20045;-63
2023/10/30 10:21:26;;;;;;;5.28;3.67;;;7.80;99.90;;;;;;5052101;28;20687;-61
2023/10/30 10:23:53;;;;;;;3.60;3.30;;;7.80;99.90;;;;;;5048387;28;20478;-70
2023/10/30 10:26:29;;;;;;;2.70;2.50;;;7.80;99.90;;;;;;5050877;28;20045;-65
2023/10/30 10:28:56;;;;;;;5.13;2.85;;;7.90;99.90;;;;;;5048102;28;20516;-61
2023/10/30 10:31:23;;;;;;;7.55;3.67;;;7.90;99.90;;;;;;5050034;28;20049;-62
2023/10/30 10:33:50;;;;;;;4.72;2.97;;;7.90;99.90;;;;;;5050821;28;20559;-67
2023/10/30 10:36:17;;;;;;;4.90;2.80;;;8.00;99.90;;;;;;5050794;28;20049;-65
2023/10/30 10:39:00;;;;;;;2.92;2.65;;;8.00;99.90;;;;;;5045861;28;20115;-62
2023/10/30 10:41:27;;;;;;;4.57;3.10;;;8.10;99.90;;;;;;5050383;28;20052;-62
2023/10/30 10:43:56;;;;;;;3.15;2.78;;;8.10;99.90;;;;;;5031518;28;20442;-61
2023/10/30 10:46:23;;;;;;;4.43;3.00;;;8.10;99.90;;;;;;5051231;28;20123;-68
2023/10/30 10:48:50;;;;;;;11.75;2.95;;;8.10;99.90;;;;;;5053946;28;20064;-62
2023/10/30 10:51:38;;;;;;;3.92;2.45;;;8.10;99.90;;;;;;5044269;28;20406;-62
2023/10/30 10:54:11;;;;;;;3.60;3.00;;;8.20;99.90;;;;;;5049011;28;20292;-63
2023/10/30 10:56:39;;;;;;;3.55;2.88;;;8.20;99.90;;;;;;5050151;28;20546;-64
2023/10/30 10:59:14;;;;;;;4.68;2.92;;;8.30;99.90;;;;;;5049704;28;20041;-61
2023/10/30 11:01:45;;;;;;;4.40;2.58;;;8.30;99.90;;;;;;5041642;28;20044;-61
2023/10/30 11:04:13;;;;;;;6.15;3.30;;;8.30;99.90;;;;;;5052755;28;20044;-63
2023/10/30 11:06:48;;;;;;;5.78;3.20;;;8.40;99.90;;;;;;5054416;28;20037;-62
2023/10/30 11:09:22;;;;;;;5.05;3.42;;;8.40;99.90;;;;;;5052226;28;20037;-63
2023/10/30 11:12:03;;;;;;;11.30;4.00;;;8.30;99.90;;;;;;5049156;28;20049;-61
2023/10/30 11:14:48;;;;;;;4.18;3.78;;;8.30;99.90;;;;;;5045448;28;20287;-62
2023/10/30 11:17:16;;;;;;;4.53;3.60;;;8.30;99.90;;;;;;5048812;28;20454;-63
2023/10/30 11:19:45;;;;;;;8.23;4.03;;;8.20;99.90;;;;;;5051115;28;20056;-63
2023/10/30 11:22:42;;;;;;;6.00;3.63;;;8.20;99.90;;;;;;5046978;28;20796;-66
2023/10/30 11:25:38;;;;;;;5.60;4.10;;;8.30;99.90;;;;;;5051256;28;20055;-64
2023/10/30 11:28:07;;;;;;;9.27;4.20;;;8.20;99.90;;;;;;5046898;28;20044;-62
2023/10/30 11:30:44;;;;;;;6.15;4.45;;;8.20;99.90;;;;;;5050103;28;20053;-62
2023/10/30 11:33:21;;;;;;;5.25;3.85;;;8.20;99.90;;;;;;5049035;28;20103;-62
2023/10/30 11:36:14;;;;;;;5.78;4.00;;;8.30;99.90;;;;;;5047612;28;20475;-61
2023/10/30 11:39:06;;;;;;;5.10;3.50;;;8.30;99.90;;;;;;5048828;28;20048;-62
2023/10/30 11:41:36;;;;;;;5.13;3.70;;;8.30;99.90;;;;;;5046315;28;20049;-64
2023/10/30 11:44:11;;;;;;;5.90;4.80;;;8.30;99.90;;;;;;5049257;28;20091;-63
2023/10/30 11:46:46;;;;;;;5.78;4.65;;;8.30;99.90;;;;;;5052734;28;20041;-62
2023/10/30 11:49:15;;;;;;;5.07;3.30;;;8.30;99.90;;;;;;5049229;28;20049;-61
2023/10/30 11:51:44;;;;;;;5.72;3.92;;;8.40;99.90;;;;;;5054926;28;20103;-63
2023/10/30 11:54:12;;;;;;;7.10;3.85;;;8.40;99.90;;;;;;5053195;28;20063;-61
2023/10/30 11:56:46;;;;;;;5.25;3.50;;;8.40;99.90;;;;;;5051529;28;20617;-62
2023/10/30 11:59:15;;;;;;;5.57;3.85;;;8.40;99.90;;;;;;5050951;28;20056;-62
2023/10/30 12:01:44;;;;;;;8.73;5.22;;;8.50;99.90;;;;;;5054865;28;20518;-63
2023/10/30 12:04:11;;;;;;;5.85;4.85;;;8.40;99.90;;;;;;5052710;28;20076;-61
2023/10/30 12:06:40;;;;;;;8.68;5.00;;;8.40;99.90;;;;;;5052224;28;20103;-61
2023/10/30 12:09:07;;;;;;;7.28;3.55;;;8.40;99.90;;;;;;5055390;28;20037;-62
2023/10/30 12:11:34;;;;;;;4.65;3.70;;;8.40;99.90;;;;;;5055780;28;20149;-62
2023/10/30 12:14:01;;;;;;;7.07;3.80;;;8.40;99.90;;;;;;5056943;28;20044;-64
2023/10/30 12:16:29;;;;;;;5.55;4.63;;;8.30;99.90;;;;;;5057505;28;20041;-63
2023/10/30 12:18:57;;;;;;;8.23;4.47;;;8.30;99.90;;;;;;5058386;28;20487;-64
2023/10/30 12:21:24;;;;;;;7.20;4.40;;;8.30;99.90;;;;;;5054375;28;20511;-64
2023/10/30 12:23:55;;;;;;;5.85;4.88;;;8.30;99.90;;;;;;5049902;28;20506;-64
2023/10/30 12:26:23;;;;;;;10.82;5.53;;;8.40;99.90;;;;;;5052358;28;20120;-62
2023/10/30 12:28:50;;;;;;;4.53;3.97;;;8.40;99.90;;;;;;5049982;28;20130;-63
2023/10/30 12:31:17;;;;;;;8.98;4.28;;;8.30;99.90;;;;;;5062323;28;20045;-62
2023/10/30 12:33:44;;;;;;;8.13;4.15;;;8.30;99.90;;;;;;5051407;28;20489;-63
2023/10/30 12:36:11;;;;;;;5.15;4.15;;;8.30;99.90;;;;;;5035207;28;20056;-61
2023/10/30 12:38:38;;;;;;;4.93;4.40;;;8.40;99.90;;;;;;5033710;28;20122;-69
2023/10/30 12:41:08;;;;;;;7.82;5.07;;;8.40;99.90;;;;;;5039058;28;20037;-61
2023/10/30 12:43:44;;;;;;;5.97;5.35;;;8.40;99.90;;;;;;5028831;28;20092;-61
2023/10/30 12:46:11;;;;;;;6.47;4.60;;;8.40;99.90;;;;;;5035207;28;20144;-64
2023/10/30 12:48:38;;;;;;;6.30;5.70;;;8.40;99.90;;;;;;5036836;28;20127;-64
2023/10/30 12:51:05;;;;;;;6.20;4.55;;;8.40;99.90;;;;;;5034691;28;20041;-62
2023/10/30 12:53:33;;;;;;;7.43;4.43;;;8.40;99.90;;;;;;5018633;28;20815;-63
2023/10/30 12:56:00;;;;;;;5.18;4.60;;;8.40;99.90;;;;;;5032410;28;20472;-64
2023/10/30 12:58:27;;;;;;;5.15;4.65;;;8.40;99.90;;;;;;5026613;28;20038;-60
2023/10/30 13:00:56;;;;;;;7.45;5.45;;;8.40;99.90;;;;;;5037329;28;20499;-62
2023/10/30 13:03:26;;;;;;;5.85;4.57;;;8.40;99.90;;;;;;5029565;28;20052;-63